Pagrindinis puslapis
METAR-TAF:

METAR-TAF

Oro uostai :

Kanai, Prancūzija

platuma: 43-33N, ilguma: 006-57E, Aukštis: 3 m

Dabartinis oras

Ataskaita buvo paskelbta 27 minutes, ne 19:30 UTC
Vėjas 2 kt nuo kintamojo kryptimis
Temperatūra 21°C
Drėgmė 88%
Slėgis 1018 hPa
Matomumas 10 km arba daugiau
Mažai debesys ne aukštis 7000 ft

METAR: LFMD 191930Z AUTO VRB02KT 9999 FEW070 21/19 Q1018 NOSIG

Laikas: 21:57 (19:57 UTC)

Prognozė

Ataskaita buvo paskelbta 5 valandos ir 57 minutes, ne 14:00 UTC
Prognozė galioja nuo 19 metu 15 UTC su 20 metu 15 UTC
Vėjas 3 kt nuo kintamojo kryptimis
Matomumas 10 km arba daugiau
Mažai debesys ne aukštis 3000 ft
Laikinai
nuo 19 metu 15 UTC su 19 metu 18 UTC
Vėjas 10 kt iš Pietryčių
Mažai debesys ne aukštis 4000 ft, Liūtiniai kamuoliniai debesys.
Tapsmas
nuo 20 metu 12 UTC su 20 metu 14 UTC
Vėjas 10 kt iš Rytų/Pietryčių

TAF: LFMD 191400Z 1915/2015 VRB03KT 9999 FEW030 TEMPO 1915/1918 13010KT FEW040CB BECMG 2012/2014 12010KT

Orai ataskaitas ir orų prognozės (METAR, TAF).

turimą stotys yra geltonos ir raudonos taškus žemėlapyje.

Perkelti pele per norėdami pamatyti stoties vardą.

Tada spustelėkite, norėdami matyti oro stebėjimo ir prognozės.

Norėdami pakeisti žemėlapį: spustelėkite ant žalios mygtukų su juodo kryžiaus žemyn,; žalią mygtuką su brūkšneliu, jei norite nutolinti; arba žalių rodyklių gretimoms žemėlapius.


METAR-TAF: